Terminal Aerodrome Forecast
Issued by NWS

Home | Current Version | Previous Version | Text Only | Print | Product List | Glossary On
Versions: 1 2 3 4 5 6 7 8 9 10 11 12 13 14 15 16 17 18 19 20 21 22 23 24 25 26
222
FTAK31 PANC 261738
TAFAGK
TAF
PAGK 261738Z 2618/2718 35004KT P6SM BKN120
     FM270000 02007KT P6SM SCT040 OVC060
     FM270600 VRB03KT P6SM -RA SCT030 OVC050
     FM271200 04005KT P6SM FEW030 BKN050=

USA.gov is the U.S. government's official web portal to all federal, state and local government web resources and services.